FLX143A SBAR-SBJE
Flight info
| Callsign | FLX143A |
|---|---|
| Flight time | 1h 36m |
| Altitude | 37000 |
| Route | GERSO UZ42 ANBEX DCT IREKI DCT IROSI/N0457F380 UZ81 ISUPI DCT |
| Aircraft | A321/M-SDE3FGHIRWY/LB1 |
Departure
| Time | 2026-04-27 22:41 |
|---|---|
| Airport | Aracaju - Santa Maria Airport (SBAR) |
Arrival
| Time | 2026-04-28 00:18 |
|---|---|
| Airport | Comandante Ariston Pessoa Airport (SBJE) |
| Time | Latitude | Longitude | Altitude | Speed | Heading |
|---|---|---|---|---|---|
| 2026-04-27 22:24 | -10.98632 | -37.07235 | 32 ft | 0 kts | 180° |
| 2026-04-27 22:34 | -10.98631 | -37.07235 | 32 ft | 1 kts | 180° |
| 2026-04-27 22:34 | -10.98616 | -37.07235 | 32 ft | 2 kts | 180° |
| 2026-04-27 22:35 | -10.98601 | -37.07235 | 32 ft | 2 kts | 180° |
| 2026-04-27 22:35 | -10.98587 | -37.07232 | 32 ft | 2 kts | 222° |
| 2026-04-27 22:35 | -10.98579 | -37.07219 | 32 ft | 2 kts | 265° |
| 2026-04-27 22:35 | -10.98581 | -37.07204 | 32 ft | 2 kts | 276° |
| 2026-04-27 22:36 | -10.98581 | -37.07189 | 32 ft | 2 kts | 270° |
| 2026-04-27 22:36 | -10.98581 | -37.07181 | 32 ft | 0 kts | 273° |
| 2026-04-27 22:38 | -10.98580 | -37.07199 | 32 ft | 5 kts | 273° |
| 2026-04-27 22:38 | -10.98551 | -37.07233 | 32 ft | 9 kts | 349° |
| 2026-04-27 22:39 | -10.98466 | -37.07233 | 32 ft | 15 kts | 1° |
| 2026-04-27 22:39 | -10.98390 | -37.07250 | 32 ft | 9 kts | 276° |
| 2026-04-27 22:39 | -10.98392 | -37.07349 | 32 ft | 17 kts | 270° |
| 2026-04-27 22:39 | -10.98390 | -37.07500 | 32 ft | 24 kts | 270° |
| 2026-04-27 22:40 | -10.98380 | -37.07692 | 33 ft | 29 kts | 271° |
| 2026-04-27 22:40 | -10.98377 | -37.07895 | 33 ft | 28 kts | 273° |
| 2026-04-27 22:40 | -10.98334 | -37.08004 | 33 ft | 12 kts | 290° |
| 2026-04-27 22:40 | -10.98368 | -37.08033 | 33 ft | 4 kts | 150° |
| 2026-04-27 22:41 | -10.98376 | -37.07846 | 33 ft | 65 kts | 92° |
| 2026-04-27 22:41 | -10.98401 | -37.07114 | 32 ft | 140 kts | 92° |
| 2026-04-27 22:41 | -10.98440 | -37.06018 | 487 ft | 160 kts | 94° |
| 2026-04-27 22:41 | -10.98499 | -37.04882 | 1246 ft | 164 kts | 95° |
| 2026-04-27 22:42 | -10.98580 | -37.03684 | 1730 ft | 180 kts | 94° |
| 2026-04-27 22:42 | -10.98342 | -37.02364 | 2182 ft | 202 kts | 74° |
| 2026-04-27 22:42 | -10.97811 | -37.00972 | 2670 ft | 221 kts | 70° |
| 2026-04-27 22:42 | -10.97187 | -36.99459 | 3104 ft | 245 kts | 69° |
| 2026-04-27 22:43 | -10.96502 | -36.97818 | 3754 ft | 260 kts | 68° |
| 2026-04-27 22:43 | -10.95795 | -36.96116 | 4621 ft | 265 kts | 68° |
| 2026-04-27 22:43 | -10.95084 | -36.94400 | 5529 ft | 268 kts | 68° |
| 2026-04-27 22:43 | -10.94366 | -36.92660 | 6410 ft | 272 kts | 67° |
| 2026-04-27 22:44 | -10.93631 | -36.90880 | 7280 ft | 275 kts | 66° |
| 2026-04-27 22:44 | -10.92895 | -36.89094 | 8134 ft | 277 kts | 66° |
| 2026-04-27 22:44 | -10.92152 | -36.87288 | 8970 ft | 279 kts | 65° |
| 2026-04-27 22:44 | -10.91403 | -36.85471 | 9760 ft | 282 kts | 65° |
| 2026-04-27 22:45 | -10.90638 | -36.83620 | 10457 ft | 288 kts | 66° |
| 2026-04-27 22:45 | -10.89842 | -36.81692 | 10847 ft | 305 kts | 66° |
| 2026-04-27 22:45 | -10.88990 | -36.79626 | 11177 ft | 323 kts | 66° |
| 2026-04-27 22:45 | -10.88109 | -36.77488 | 11472 ft | 339 kts | 66° |
| 2026-04-27 22:46 | -10.87174 | -36.75214 | 11776 ft | 354 kts | 66° |
| 2026-04-27 22:46 | -10.86201 | -36.72846 | 12301 ft | 360 kts | 67° |
| 2026-04-27 22:46 | -10.85232 | -36.70490 | 12896 ft | 364 kts | 67° |
| 2026-04-27 22:46 | -10.84236 | -36.68105 | 13458 ft | 367 kts | 65° |
| 2026-04-27 22:47 | -10.82857 | -36.65942 | 13981 ft | 371 kts | 50° |
| 2026-04-27 22:47 | -10.80885 | -36.64209 | 14551 ft | 375 kts | 34° |
| 2026-04-27 22:47 | -10.78562 | -36.62940 | 15124 ft | 378 kts | 28° |
| 2026-04-27 22:47 | -10.76176 | -36.61747 | 15641 ft | 382 kts | 27° |
| 2026-04-27 22:48 | -10.73765 | -36.60551 | 16144 ft | 385 kts | 28° |
| 2026-04-27 22:48 | -10.71373 | -36.59362 | 16641 ft | 387 kts | 28° |
| 2026-04-27 22:48 | -10.68896 | -36.58125 | 17141 ft | 390 kts | 28° |
| 2026-04-27 22:48 | -10.66456 | -36.56903 | 17621 ft | 393 kts | 28° |
| 2026-04-27 22:49 | -10.63996 | -36.55670 | 18101 ft | 395 kts | 29° |
| 2026-04-27 22:49 | -10.61543 | -36.54439 | 18574 ft | 397 kts | 29° |
| 2026-04-27 22:49 | -10.59030 | -36.53177 | 19050 ft | 398 kts | 29° |
| 2026-04-27 22:49 | -10.56540 | -36.51925 | 19503 ft | 400 kts | 29° |
| 2026-04-27 22:50 | -10.54057 | -36.50676 | 19930 ft | 403 kts | 30° |
| 2026-04-27 22:50 | -10.51516 | -36.49398 | 20365 ft | 405 kts | 30° |
| 2026-04-27 22:50 | -10.48987 | -36.48127 | 20809 ft | 406 kts | 30° |
| 2026-04-27 22:50 | -10.46443 | -36.46848 | 21247 ft | 408 kts | 30° |
| 2026-04-27 22:51 | -10.43913 | -36.45576 | 21677 ft | 409 kts | 30° |
| 2026-04-27 22:51 | -10.41345 | -36.44286 | 22094 ft | 411 kts | 30° |
| 2026-04-27 22:51 | -10.38765 | -36.42990 | 22503 ft | 412 kts | 30° |
| 2026-04-27 22:51 | -10.36185 | -36.41691 | 22888 ft | 415 kts | 30° |
| 2026-04-27 22:52 | -10.33589 | -36.40384 | 23233 ft | 418 kts | 30° |
| 2026-04-27 22:52 | -10.30935 | -36.39050 | 23589 ft | 421 kts | 30° |
| 2026-04-27 22:52 | -10.28308 | -36.37730 | 23935 ft | 424 kts | 30° |
| 2026-04-27 22:52 | -10.25634 | -36.36388 | 24276 ft | 427 kts | 30° |
| 2026-04-27 22:53 | -10.22993 | -36.35063 | 24613 ft | 430 kts | 30° |
| 2026-04-27 22:53 | -10.20292 | -36.33707 | 24952 ft | 433 kts | 30° |
| 2026-04-27 22:53 | -10.17565 | -36.32338 | 25293 ft | 436 kts | 30° |
| 2026-04-27 22:53 | -10.14846 | -36.30973 | 25623 ft | 439 kts | 30° |
| 2026-04-27 22:54 | -10.12062 | -36.29577 | 25958 ft | 441 kts | 29° |
| 2026-04-27 22:54 | -10.09302 | -36.28193 | 26299 ft | 444 kts | 29° |
| 2026-04-27 22:54 | -10.06517 | -36.26799 | 26623 ft | 446 kts | 29° |
| 2026-04-27 22:54 | -10.03735 | -36.25405 | 26943 ft | 448 kts | 29° |
| 2026-04-27 22:55 | -10.00908 | -36.23988 | 27240 ft | 451 kts | 29° |
| 2026-04-27 22:55 | -9.98070 | -36.22567 | 27533 ft | 454 kts | 29° |
| 2026-04-27 22:55 | -9.95248 | -36.21154 | 27826 ft | 457 kts | 29° |
| 2026-04-27 22:55 | -9.92358 | -36.19706 | 28120 ft | 459 kts | 29° |
| 2026-04-27 22:56 | -9.89485 | -36.18268 | 28470 ft | 460 kts | 29° |
| 2026-04-27 22:56 | -9.86602 | -36.16824 | 28904 ft | 459 kts | 29° |
| 2026-04-27 22:56 | -9.83732 | -36.15386 | 29367 ft | 458 kts | 28° |
| 2026-04-27 22:56 | -9.80851 | -36.13942 | 29853 ft | 456 kts | 28° |
| 2026-04-27 22:57 | -9.77998 | -36.12513 | 30364 ft | 454 kts | 28° |
| 2026-04-27 22:57 | -9.75162 | -36.11093 | 30896 ft | 452 kts | 28° |
| 2026-04-27 22:57 | -9.72359 | -36.09692 | 31418 ft | 450 kts | 27° |
| 2026-04-27 22:57 | -9.69565 | -36.08295 | 31913 ft | 448 kts | 27° |
| 2026-04-27 22:58 | -9.66751 | -36.06887 | 32406 ft | 446 kts | 27° |
| 2026-04-27 22:58 | -9.63980 | -36.05502 | 32906 ft | 445 kts | 27° |
| 2026-04-27 22:58 | -9.61206 | -36.04117 | 33447 ft | 443 kts | 27° |
| 2026-04-27 22:58 | -9.58439 | -36.02736 | 33995 ft | 441 kts | 27° |
| 2026-04-27 22:59 | -9.55689 | -36.01363 | 34516 ft | 439 kts | 27° |
| 2026-04-27 22:59 | -9.52985 | -36.00013 | 35023 ft | 437 kts | 27° |
| 2026-04-27 22:59 | -9.50258 | -35.98650 | 35492 ft | 435 kts | 27° |
| 2026-04-27 22:59 | -9.47533 | -35.97290 | 35884 ft | 435 kts | 27° |
| 2026-04-27 23:00 | -9.42066 | -35.94560 | 36451 ft | 438 kts | 27° |
| 2026-04-27 23:00 | -9.39321 | -35.93189 | 36710 ft | 439 kts | 27° |
| 2026-04-27 23:00 | -9.36556 | -35.91809 | 36957 ft | 440 kts | 27° |
| 2026-04-27 23:01 | -9.31053 | -35.89062 | 37012 ft | 442 kts | 27° |
| 2026-04-27 23:01 | -9.25523 | -35.86304 | 37014 ft | 442 kts | 27° |
| 2026-04-27 23:02 | -9.19988 | -35.83542 | 37015 ft | 442 kts | 27° |
| 2026-04-27 23:02 | -9.14453 | -35.80779 | 37017 ft | 442 kts | 27° |
| 2026-04-27 23:03 | -9.08928 | -35.78025 | 37010 ft | 443 kts | 27° |
| 2026-04-27 23:03 | -9.03278 | -35.75570 | 37006 ft | 443 kts | 21° |
| 2026-04-27 23:04 | -8.97366 | -35.73724 | 37006 ft | 444 kts | 15° |
| 2026-04-27 23:04 | -8.91272 | -35.72435 | 37014 ft | 445 kts | 12° |
| 2026-04-27 23:05 | -8.85151 | -35.71240 | 37016 ft | 444 kts | 12° |
| 2026-04-27 23:05 | -8.79069 | -35.70051 | 37021 ft | 445 kts | 12° |
| 2026-04-27 23:06 | -8.72961 | -35.68857 | 37022 ft | 445 kts | 12° |
| 2026-04-27 23:06 | -8.66859 | -35.67663 | 37022 ft | 445 kts | 12° |
| 2026-04-27 23:07 | -8.60774 | -35.66473 | 37020 ft | 445 kts | 12° |
| 2026-04-27 23:07 | -8.54674 | -35.65281 | 37018 ft | 446 kts | 12° |
| 2026-04-27 23:08 | -8.48567 | -35.64088 | 37018 ft | 446 kts | 13° |
| 2026-04-27 23:08 | -8.42475 | -35.62898 | 37017 ft | 446 kts | 12° |
| 2026-04-27 23:09 | -8.36329 | -35.61698 | 37019 ft | 446 kts | 13° |
| 2026-04-27 23:09 | -8.30249 | -35.60511 | 37024 ft | 446 kts | 12° |
| 2026-04-27 23:10 | -8.24126 | -35.59316 | 37028 ft | 446 kts | 13° |
| 2026-04-27 23:10 | -8.17986 | -35.58117 | 37023 ft | 446 kts | 13° |
| 2026-04-27 23:11 | -8.11872 | -35.56924 | 37014 ft | 447 kts | 13° |
| 2026-04-27 23:11 | -8.05767 | -35.55734 | 37013 ft | 447 kts | 13° |
| 2026-04-27 23:12 | -7.99654 | -35.54542 | 37009 ft | 447 kts | 13° |
| 2026-04-27 23:12 | -7.93511 | -35.53345 | 37007 ft | 446 kts | 13° |
| 2026-04-27 23:13 | -7.87428 | -35.52158 | 37005 ft | 446 kts | 13° |
| 2026-04-27 23:13 | -7.81286 | -35.50958 | 37002 ft | 446 kts | 13° |
| 2026-04-27 23:14 | -7.75202 | -35.49772 | 36998 ft | 447 kts | 13° |
| 2026-04-27 23:14 | -7.69010 | -35.48813 | 37001 ft | 449 kts | 7° |
| 2026-04-27 23:15 | -7.62734 | -35.48616 | 37001 ft | 450 kts | 0° |
| 2026-04-27 23:15 | -7.56488 | -35.49213 | 37005 ft | 452 kts | 353° |
| 2026-04-27 23:16 | -7.50310 | -35.50484 | 37008 ft | 454 kts | 348° |
| 2026-04-27 23:16 | -7.44278 | -35.52524 | 37015 ft | 459 kts | 339° |
| 2026-04-27 23:17 | -7.41371 | -35.53910 | 37236 ft | 461 kts | 334° |
| 2026-04-27 23:17 | -7.38605 | -35.55510 | 37611 ft | 460 kts | 330° |
| 2026-04-27 23:17 | -7.35937 | -35.57345 | 37953 ft | 460 kts | 326° |
| 2026-04-27 23:17 | -7.33444 | -35.59341 | 38003 ft | 461 kts | 323° |
| 2026-04-27 23:18 | -7.28518 | -35.63517 | 38011 ft | 461 kts | 322° |
| 2026-04-27 23:18 | -7.23645 | -35.67656 | 38013 ft | 460 kts | 322° |
| 2026-04-27 23:19 | -7.18708 | -35.71824 | 38017 ft | 460 kts | 322° |
| 2026-04-27 23:19 | -7.13823 | -35.75938 | 38016 ft | 460 kts | 322° |
| 2026-04-27 23:20 | -7.08883 | -35.80071 | 38021 ft | 460 kts | 323° |
| 2026-04-27 23:20 | -7.03944 | -35.84165 | 38029 ft | 461 kts | 323° |
| 2026-04-27 23:21 | -6.98972 | -35.88303 | 38033 ft | 462 kts | 323° |
| 2026-04-27 23:21 | -6.94034 | -35.92419 | 38039 ft | 461 kts | 323° |
| 2026-04-27 23:22 | -6.89074 | -35.96552 | 38041 ft | 461 kts | 322° |
| 2026-04-27 23:22 | -6.84142 | -36.00666 | 38042 ft | 461 kts | 323° |
| 2026-04-27 23:23 | -6.79178 | -36.04802 | 38041 ft | 461 kts | 323° |
| 2026-04-27 23:23 | -6.74251 | -36.08902 | 38036 ft | 461 kts | 323° |
| 2026-04-27 23:24 | -6.69309 | -36.13016 | 38033 ft | 462 kts | 323° |
| 2026-04-27 23:24 | -6.64373 | -36.17126 | 38035 ft | 461 kts | 323° |
| 2026-04-27 23:25 | -6.59427 | -36.21242 | 38037 ft | 461 kts | 323° |
| 2026-04-27 23:25 | -6.54460 | -36.25375 | 38038 ft | 461 kts | 323° |
| 2026-04-27 23:26 | -6.49528 | -36.29478 | 38038 ft | 461 kts | 323° |
| 2026-04-27 23:26 | -6.44559 | -36.33610 | 38040 ft | 461 kts | 323° |
| 2026-04-27 23:27 | -6.39611 | -36.37725 | 38039 ft | 461 kts | 323° |
| 2026-04-27 23:27 | -6.34699 | -36.41807 | 38030 ft | 461 kts | 323° |
| 2026-04-27 23:28 | -6.29754 | -36.45927 | 38023 ft | 461 kts | 323° |
| 2026-04-27 23:28 | -6.24814 | -36.50037 | 38020 ft | 461 kts | 323° |
| 2026-04-27 23:29 | -6.19837 | -36.54172 | 38013 ft | 461 kts | 323° |
| 2026-04-27 23:29 | -6.14899 | -36.58276 | 38005 ft | 461 kts | 323° |
| 2026-04-27 23:30 | -6.09942 | -36.62391 | 37996 ft | 462 kts | 323° |
| 2026-04-27 23:30 | -6.04992 | -36.66497 | 37990 ft | 461 kts | 323° |
| 2026-04-27 23:31 | -6.00056 | -36.70590 | 37975 ft | 461 kts | 323° |
| 2026-04-27 23:31 | -5.95094 | -36.74705 | 37959 ft | 461 kts | 323° |
| 2026-04-27 23:32 | -5.90146 | -36.78809 | 37954 ft | 462 kts | 323° |
| 2026-04-27 23:32 | -5.85208 | -36.82904 | 37958 ft | 462 kts | 323° |
| 2026-04-27 23:33 | -5.80246 | -36.87016 | 37953 ft | 461 kts | 323° |
| 2026-04-27 23:33 | -5.75287 | -36.91127 | 37955 ft | 462 kts | 323° |
| 2026-04-27 23:34 | -5.70329 | -36.95232 | 37957 ft | 464 kts | 323° |
| 2026-04-27 23:34 | -5.65341 | -36.99362 | 37958 ft | 463 kts | 323° |
| 2026-04-27 23:35 | -5.60385 | -37.03469 | 37953 ft | 463 kts | 323° |
| 2026-04-27 23:35 | -5.55434 | -37.07568 | 37948 ft | 463 kts | 323° |
| 2026-04-27 23:36 | -5.50465 | -37.11683 | 37944 ft | 463 kts | 323° |
| 2026-04-27 23:36 | -5.45478 | -37.15804 | 37944 ft | 464 kts | 324° |
| 2026-04-27 23:37 | -5.40430 | -37.19860 | 37943 ft | 465 kts | 324° |
| 2026-04-27 23:37 | -5.35354 | -37.23917 | 37943 ft | 464 kts | 324° |
| 2026-04-27 23:38 | -5.30298 | -37.27966 | 37940 ft | 465 kts | 324° |
| 2026-04-27 23:38 | -5.25259 | -37.32007 | 37938 ft | 465 kts | 324° |
| 2026-04-27 23:39 | -5.20178 | -37.36081 | 37941 ft | 465 kts | 324° |
| 2026-04-27 23:39 | -5.15196 | -37.40194 | 37940 ft | 466 kts | 323° |
| 2026-04-27 23:40 | -5.10204 | -37.44384 | 37941 ft | 466 kts | 323° |
| 2026-04-27 23:40 | -5.05226 | -37.48558 | 37942 ft | 466 kts | 323° |
| 2026-04-27 23:41 | -5.00252 | -37.52717 | 37942 ft | 467 kts | 323° |
| 2026-04-27 23:41 | -4.95256 | -37.56891 | 37948 ft | 467 kts | 323° |
| 2026-04-27 23:42 | -4.90270 | -37.61058 | 37946 ft | 467 kts | 323° |
| 2026-04-27 23:42 | -4.85256 | -37.65245 | 37944 ft | 468 kts | 323° |
| 2026-04-27 23:43 | -4.80230 | -37.69442 | 37944 ft | 468 kts | 323° |
| 2026-04-27 23:43 | -4.75243 | -37.73604 | 37939 ft | 468 kts | 323° |
| 2026-04-27 23:44 | -4.70225 | -37.77794 | 37936 ft | 468 kts | 323° |
| 2026-04-27 23:44 | -4.65233 | -37.81963 | 37935 ft | 469 kts | 323° |
| 2026-04-27 23:45 | -4.60210 | -37.86154 | 37932 ft | 469 kts | 323° |
| 2026-04-27 23:45 | -4.55147 | -37.90377 | 37935 ft | 469 kts | 323° |
| 2026-04-27 23:46 | -4.50129 | -37.94563 | 37939 ft | 469 kts | 323° |
| 2026-04-27 23:46 | -4.45089 | -37.98743 | 37945 ft | 469 kts | 324° |
| 2026-04-27 23:47 | -4.40022 | -38.02866 | 37947 ft | 470 kts | 324° |
| 2026-04-27 23:47 | -4.34950 | -38.06996 | 37946 ft | 470 kts | 324° |
| 2026-04-27 23:48 | -4.29881 | -38.11131 | 37945 ft | 469 kts | 324° |
| 2026-04-27 23:48 | -4.24808 | -38.15310 | 37945 ft | 469 kts | 323° |
| 2026-04-27 23:49 | -4.19782 | -38.19485 | 37942 ft | 469 kts | 323° |
| 2026-04-27 23:49 | -4.14751 | -38.23660 | 37941 ft | 470 kts | 323° |
| 2026-04-27 23:50 | -4.09695 | -38.27853 | 37940 ft | 471 kts | 323° |
| 2026-04-27 23:50 | -4.04632 | -38.32051 | 37941 ft | 472 kts | 323° |
| 2026-04-27 23:51 | -3.99574 | -38.36247 | 37943 ft | 473 kts | 323° |
| 2026-04-27 23:51 | -3.94502 | -38.40453 | 37944 ft | 473 kts | 323° |
| 2026-04-27 23:52 | -3.89417 | -38.44668 | 37946 ft | 472 kts | 323° |
| 2026-04-27 23:52 | -3.84374 | -38.48869 | 37943 ft | 472 kts | 321° |
| 2026-04-27 23:53 | -3.79926 | -38.53786 | 37945 ft | 477 kts | 308° |
| 2026-04-27 23:53 | -3.76663 | -38.59610 | 37948 ft | 483 kts | 294° |
| 2026-04-27 23:54 | -3.74725 | -38.66101 | 37951 ft | 486 kts | 283° |
| 2026-04-27 23:54 | -3.73368 | -38.72718 | 37954 ft | 486 kts | 282° |
| 2026-04-27 23:55 | -3.72006 | -38.79347 | 37957 ft | 486 kts | 283° |
| 2026-04-27 23:55 | -3.70623 | -38.85919 | 37953 ft | 486 kts | 283° |
| 2026-04-27 23:56 | -3.69223 | -38.92517 | 37954 ft | 486 kts | 283° |
| 2026-04-27 23:56 | -3.67810 | -38.99148 | 37955 ft | 487 kts | 283° |
| 2026-04-27 23:57 | -3.66406 | -39.05752 | 37948 ft | 487 kts | 283° |
| 2026-04-27 23:57 | -3.65706 | -39.09052 | 37492 ft | 486 kts | 283° |
| 2026-04-27 23:57 | -3.65003 | -39.12357 | 36844 ft | 483 kts | 283° |
| 2026-04-27 23:58 | -3.64309 | -39.15619 | 36167 ft | 481 kts | 283° |
| 2026-04-27 23:58 | -3.63614 | -39.18884 | 35404 ft | 480 kts | 283° |
| 2026-04-27 23:58 | -3.62924 | -39.22129 | 34677 ft | 478 kts | 283° |
| 2026-04-27 23:58 | -3.62236 | -39.25372 | 33960 ft | 476 kts | 283° |
| 2026-04-27 23:59 | -3.61543 | -39.28633 | 33200 ft | 477 kts | 283° |
| 2026-04-27 23:59 | -3.60855 | -39.31867 | 32462 ft | 479 kts | 283° |
| 2026-04-27 23:59 | -3.60161 | -39.35126 | 31714 ft | 479 kts | 283° |
| 2026-04-27 23:59 | -3.59478 | -39.38335 | 30930 ft | 479 kts | 283° |
| 2026-04-28 00:00 | -3.58776 | -39.41629 | 30099 ft | 480 kts | 283° |
| 2026-04-28 00:00 | -3.58089 | -39.44857 | 29265 ft | 480 kts | 283° |
| 2026-04-28 00:00 | -3.57392 | -39.48127 | 28409 ft | 480 kts | 283° |
| 2026-04-28 00:00 | -3.56701 | -39.51376 | 27565 ft | 480 kts | 283° |
| 2026-04-28 00:01 | -3.56011 | -39.54618 | 26985 ft | 473 kts | 283° |
| 2026-04-28 00:01 | -3.55324 | -39.57847 | 26091 ft | 474 kts | 283° |
| 2026-04-28 00:01 | -3.54642 | -39.61049 | 24956 ft | 480 kts | 283° |
| 2026-04-28 00:01 | -3.53942 | -39.64337 | 23929 ft | 482 kts | 283° |
| 2026-04-28 00:02 | -3.53246 | -39.67606 | 23092 ft | 479 kts | 283° |
| 2026-04-28 00:02 | -3.52558 | -39.70834 | 22288 ft | 476 kts | 283° |
| 2026-04-28 00:02 | -3.51869 | -39.74058 | 21543 ft | 472 kts | 283° |
| 2026-04-28 00:02 | -3.51183 | -39.77269 | 20885 ft | 466 kts | 282° |
| 2026-04-28 00:03 | -3.50513 | -39.80396 | 20277 ft | 458 kts | 282° |
| 2026-04-28 00:03 | -3.49863 | -39.83437 | 19546 ft | 445 kts | 282° |
| 2026-04-28 00:03 | -3.49223 | -39.86430 | 18328 ft | 435 kts | 282° |
| 2026-04-28 00:03 | -3.48604 | -39.89317 | 17067 ft | 425 kts | 281° |
| 2026-04-28 00:04 | -3.48003 | -39.92142 | 16237 ft | 406 kts | 281° |
| 2026-04-28 00:04 | -3.46846 | -39.97580 | 15171 ft | 396 kts | 281° |
| 2026-04-28 00:04 | -3.46160 | -40.00237 | 14615 ft | 393 kts | 289° |
| 2026-04-28 00:05 | -3.45032 | -40.02721 | 14045 ft | 391 kts | 299° |
| 2026-04-28 00:05 | -3.43534 | -40.04939 | 13461 ft | 390 kts | 307° |
| 2026-04-28 00:05 | -3.41865 | -40.07116 | 12873 ft | 387 kts | 308° |
| 2026-04-28 00:05 | -3.40210 | -40.09234 | 12298 ft | 384 kts | 308° |
| 2026-04-28 00:06 | -3.38582 | -40.11319 | 11730 ft | 380 kts | 308° |
| 2026-04-28 00:06 | -3.36973 | -40.13394 | 11241 ft | 374 kts | 308° |
| 2026-04-28 00:06 | -3.35397 | -40.15436 | 10886 ft | 363 kts | 308° |
| 2026-04-28 00:06 | -3.33877 | -40.17411 | 10624 ft | 350 kts | 308° |
| 2026-04-28 00:07 | -3.32392 | -40.19342 | 10419 ft | 336 kts | 308° |
| 2026-04-28 00:07 | -3.30975 | -40.21188 | 10215 ft | 324 kts | 308° |
| 2026-04-28 00:07 | -3.29612 | -40.22963 | 10001 ft | 313 kts | 308° |
| 2026-04-28 00:07 | -3.28293 | -40.24680 | 9780 ft | 304 kts | 308° |
| 2026-04-28 00:08 | -3.26990 | -40.26376 | 9382 ft | 302 kts | 308° |
| 2026-04-28 00:08 | -3.25728 | -40.28021 | 8992 ft | 301 kts | 308° |
| 2026-04-28 00:08 | -3.24444 | -40.29691 | 8603 ft | 298 kts | 308° |
| 2026-04-28 00:08 | -3.23193 | -40.31319 | 8228 ft | 296 kts | 308° |
| 2026-04-28 00:09 | -3.21940 | -40.32952 | 7850 ft | 294 kts | 308° |
| 2026-04-28 00:09 | -3.20690 | -40.34581 | 7467 ft | 293 kts | 308° |
| 2026-04-28 00:09 | -3.19451 | -40.36194 | 7091 ft | 291 kts | 308° |
| 2026-04-28 00:09 | -3.18221 | -40.37798 | 6713 ft | 290 kts | 308° |
| 2026-04-28 00:10 | -3.16998 | -40.39389 | 6343 ft | 288 kts | 308° |
| 2026-04-28 00:10 | -3.15779 | -40.40977 | 5971 ft | 287 kts | 308° |
| 2026-04-28 00:10 | -3.14544 | -40.42584 | 5596 ft | 286 kts | 308° |
| 2026-04-28 00:10 | -3.13332 | -40.44163 | 5228 ft | 284 kts | 308° |
| 2026-04-28 00:11 | -3.12111 | -40.45752 | 4864 ft | 282 kts | 308° |
| 2026-04-28 00:11 | -3.10906 | -40.47322 | 4506 ft | 280 kts | 308° |
| 2026-04-28 00:11 | -3.09699 | -40.48895 | 4150 ft | 278 kts | 308° |
| 2026-04-28 00:11 | -3.08383 | -40.50242 | 3982 ft | 266 kts | 331° |
| 2026-04-28 00:12 | -3.06678 | -40.50764 | 3872 ft | 250 kts | 356° |
| 2026-04-28 00:12 | -3.04969 | -40.50923 | 3745 ft | 240 kts | 357° |
| 2026-04-28 00:12 | -3.03316 | -40.51084 | 3616 ft | 230 kts | 357° |
| 2026-04-28 00:12 | -3.01757 | -40.51237 | 3531 ft | 219 kts | 357° |
| 2026-04-28 00:13 | -3.00312 | -40.51379 | 3525 ft | 200 kts | 357° |
| 2026-04-28 00:13 | -2.98947 | -40.51431 | 3308 ft | 188 kts | 13° |
| 2026-04-28 00:13 | -2.97946 | -40.50771 | 3080 ft | 167 kts | 62° |
| 2026-04-28 00:13 | -2.97526 | -40.49756 | 2968 ft | 152 kts | 70° |
| 2026-04-28 00:14 | -2.97115 | -40.48817 | 2812 ft | 142 kts | 68° |
| 2026-04-28 00:14 | -2.96695 | -40.47929 | 2552 ft | 141 kts | 67° |
| 2026-04-28 00:14 | -2.96272 | -40.47056 | 2394 ft | 139 kts | 66° |
| 2026-04-28 00:14 | -2.95844 | -40.46182 | 2194 ft | 139 kts | 65° |
| 2026-04-28 00:15 | -2.95416 | -40.45319 | 2005 ft | 139 kts | 66° |
| 2026-04-28 00:15 | -2.94981 | -40.44447 | 1818 ft | 139 kts | 65° |
| 2026-04-28 00:15 | -2.94553 | -40.43584 | 1628 ft | 138 kts | 65° |
| 2026-04-28 00:15 | -2.94120 | -40.42716 | 1442 ft | 138 kts | 65° |
| 2026-04-28 00:16 | -2.93692 | -40.41859 | 1254 ft | 137 kts | 65° |
| 2026-04-28 00:16 | -2.93276 | -40.41029 | 1055 ft | 130 kts | 65° |
| 2026-04-28 00:16 | -2.92881 | -40.40221 | 870 ft | 131 kts | 64° |
| 2026-04-28 00:16 | -2.92477 | -40.39408 | 686 ft | 130 kts | 64° |
| 2026-04-28 00:17 | -2.92067 | -40.38598 | 539 ft | 130 kts | 64° |
| 2026-04-28 00:17 | -2.91668 | -40.37771 | 397 ft | 131 kts | 64° |
| 2026-04-28 00:17 | -2.91252 | -40.36959 | 227 ft | 131 kts | 63° |
| 2026-04-28 00:17 | -2.90845 | -40.36137 | 98 ft | 128 kts | 63° |
| 2026-04-28 00:18 | -2.90548 | -40.35548 | 98 ft | 50 kts | 64° |
| 2026-04-28 00:18 | -2.90412 | -40.35272 | 99 ft | 41 kts | 67° |
| 2026-04-28 00:18 | -2.90375 | -40.35078 | 100 ft | 18 kts | 89° |
| 2026-04-28 00:18 | -2.90389 | -40.34961 | 100 ft | 9 kts | 135° |
| 2026-04-28 00:19 | -2.90445 | -40.34915 | 99 ft | 11 kts | 119° |
| 2026-04-28 00:19 | -2.90486 | -40.34872 | 100 ft | 3 kts | 93° |
| 2026-04-28 00:19 | -2.90448 | -40.34860 | 100 ft | 8 kts | 2° |
| 2026-04-28 00:19 | -2.90419 | -40.34819 | 100 ft | 3 kts | 104° |
| 2026-04-28 00:20 | -2.90427 | -40.34797 | 100 ft | 2 kts | 146° |
| 2026-04-28 00:20 | -2.90445 | -40.34789 | 100 ft | 0 kts | 153° |
| 2026-04-28 00:20 | -2.90447 | -40.34788 | 100 ft | 0 kts | 153° |